Time;durP1;ratioP1;P1;durP2;ratioP2;P2;SDS_P1;SDS_P2;PMS_P1;PMS_P2;Temp;Humidity;BMP_temperature;BMP_pressure;BME280_temperature;BME280_humidity;BME280_pressure;Samples;Min_cycle;Max_cycle;Signal;HPM_P1;HPM_P2
2021/03/30 00:00:00;;;;;;;4.63;1.30;;;10.50;68.60;;;;;;6185675;23;20004;-76
2021/03/30 00:02:26;;;;;;;7.55;0.98;;;10.50;69.20;;;;;;6187671;23;20001;-78
2021/03/30 00:04:51;;;;;;;3.40;0.80;;;10.40;69.70;;;;;;6187643;23;20406;-76
2021/03/30 00:07:17;;;;;;;3.60;0.95;;;10.40;69.20;;;;;;6187926;23;20071;-78
2021/03/30 00:09:43;;;;;;;8.38;1.05;;;10.40;70.40;;;;;;6186724;23;20052;-77
2021/03/30 00:12:09;;;;;;;2.88;1.17;;;10.30;70.50;;;;;;6188891;23;20437;-80
2021/03/30 00:14:35;;;;;;;3.63;0.52;;;10.40;70.60;;;;;;6189537;23;20440;-80
2021/03/30 00:17:00;;;;;;;6.82;2.30;;;10.40;70.60;;;;;;6164614;23;19997;-80
2021/03/30 00:19:26;;;;;;;8.57;1.90;;;10.40;70.10;;;;;;6164375;23;20001;-80
2021/03/30 00:21:51;;;;;;;5.25;1.15;;;10.40;70.00;;;;;;6191297;23;20423;-80
2021/03/30 00:24:17;;;;;;;4.43;1.35;;;10.30;70.30;;;;;;6164418;23;20429;-80
2021/03/30 00:26:43;;;;;;;5.10;1.30;;;10.20;70.80;;;;;;6190924;23;20061;-80
2021/03/30 00:29:08;;;;;;;4.30;1.02;;;10.20;71.30;;;;;;6166539;23;20001;-80
2021/03/30 00:31:34;;;;;;;6.00;1.52;;;10.10;71.50;;;;;;6166628;23;20059;-80
2021/03/30 00:33:59;;;;;;;5.93;2.15;;;9.90;72.20;;;;;;6191939;23;20429;-80
2021/03/30 00:36:25;;;;;;;4.95;1.55;;;9.80;72.80;;;;;;6167060;23;20001;-79
2021/03/30 00:38:50;;;;;;;3.15;1.70;;;9.70;73.90;;;;;;6164950;23;19997;-79
2021/03/30 00:41:16;;;;;;;7.80;1.70;;;9.50;74.80;;;;;;6190494;23;20374;-79
2021/03/30 00:43:41;;;;;;;8.98;2.30;;;9.30;75.20;;;;;;6164007;23;20009;-77
2021/03/30 00:46:15;;;;;;;8.50;2.50;;;9.20;76.80;;;;;;6191051;23;20008;-79
2021/03/30 00:48:44;;;;;;;8.60;1.52;;;9.00;78.00;;;;;;6189928;23;20059;-79
2021/03/30 00:51:09;;;;;;;8.65;1.88;;;8.90;79.30;;;;;;6162703;23;20044;-79
2021/03/30 00:53:35;;;;;;;11.13;2.53;;;8.70;80.50;;;;;;6188835;23;20006;-78
2021/03/30 00:56:01;;;;;;;5.65;1.60;;;8.50;81.10;;;;;;6189458;23;20009;-80
2021/03/30 00:58:27;;;;;;;10.45;2.60;;;8.40;83.30;;;;;;6164502;23;19998;-79
2021/03/30 01:00:53;;;;;;;2.90;1.70;;;8.30;84.90;;;;;;6191836;23;20012;-79
2021/03/30 01:03:18;;;;;;;8.02;2.45;;;8.00;86.50;;;;;;6190308;23;20007;-79
2021/03/30 01:05:44;;;;;;;6.60;1.70;;;8.00;88.80;;;;;;6188593;23;20001;-78
2021/03/30 01:08:35;;;;;;;10.13;2.42;;;7.90;90.60;;;;;;6187968;23;20005;-78
2021/03/30 01:11:31;;;;;;;4.75;1.70;;;7.80;91.30;;;;;;6187250;23;20005;-78
2021/03/30 01:14:14;;;;;;;5.60;2.05;;;7.70;93.30;;;;;;6160524;23;20013;-78
2021/03/30 01:16:45;;;;;;;6.95;2.17;;;7.60;95.30;;;;;;6187024;23;20071;-78
2021/03/30 01:19:29;;;;;;;5.95;2.10;;;7.60;96.40;;;;;;6160823;23;20433;-77
2021/03/30 01:22:09;;;;;;;10.18;2.97;;;7.50;97.40;;;;;;6187228;23;20441;-78
2021/03/30 01:24:36;;;;;;;6.32;1.92;;;7.50;98.80;;;;;;6160471;23;20016;-78
2021/03/30 01:27:06;;;;;;;5.68;2.50;;;7.40;99.90;;;;;;6187186;23;20380;-79
2021/03/30 01:29:44;;;;;;;7.18;2.50;;;7.30;99.90;;;;;;6187333;23;20491;-78
2021/03/30 01:32:25;;;;;;;7.65;1.63;;;7.10;99.90;;;;;;6187507;23;20008;-79
2021/03/30 01:34:53;;;;;;;6.15;2.10;;;7.10;99.90;;;;;;6160903;23;20428;-76
2021/03/30 01:37:22;;;;;;;3.88;2.20;;;6.90;99.90;;;;;;6189151;23;20001;-76
2021/03/30 01:39:58;;;;;;;4.75;1.88;;;6.80;99.90;;;;;;6162966;23;20048;-79
2021/03/30 01:42:27;;;;;;;9.70;2.78;;;6.60;99.90;;;;;;6188451;23;19997;-76
2021/03/30 01:44:54;;;;;;;9.00;2.50;;;6.60;99.90;;;;;;6160951;23;20001;-79
2021/03/30 01:47:20;;;;;;;7.65;2.88;;;6.50;99.90;;;;;;6161186;23;20001;-79
2021/03/30 01:49:47;;;;;;;8.88;2.22;;;6.50;99.90;;;;;;6161590;23;20016;-79
2021/03/30 01:52:16;;;;;;;4.28;1.52;;;6.50;99.90;;;;;;6186752;23;20012;-76
2021/03/30 01:54:43;;;;;;;6.03;2.60;;;6.50;99.90;;;;;;6186597;23;20005;-76
2021/03/30 01:57:10;;;;;;;5.05;2.25;;;6.40;99.90;;;;;;6186463;23;20039;-75
2021/03/30 01:59:38;;;;;;;8.65;2.50;;;6.30;99.90;;;;;;6186588;23;20440;-79
2021/03/30 02:02:04;;;;;;;5.43;2.13;;;6.30;99.90;;;;;;6159969;23;20004;-76
2021/03/30 02:04:31;;;;;;;8.73;2.40;;;6.30;99.90;;;;;;6186857;23;20092;-76
2021/03/30 02:06:58;;;;;;;7.57;2.10;;;6.20;99.90;;;;;;6186476;23;20310;-76
2021/03/30 02:09:31;;;;;;;7.25;2.05;;;6.20;99.90;;;;;;6186626;23;20005;-76
2021/03/30 02:12:03;;;;;;;7.30;2.45;;;6.10;99.90;;;;;;6186391;23;20001;-78
2021/03/30 02:14:29;;;;;;;8.50;2.85;;;6.00;99.90;;;;;;6159950;23;20016;-77
2021/03/30 02:17:15;;;;;;;9.43;2.17;;;6.00;99.90;;;;;;6160026;23;20001;-76
2021/03/30 02:20:00;;;;;;;7.45;2.70;;;5.90;99.90;;;;;;6187126;23;20080;-80
2021/03/30 02:22:34;;;;;;;6.70;2.70;;;5.90;99.90;;;;;;6163434;23;20004;-81
2021/03/30 02:25:01;;;;;;;6.97;2.38;;;5.80;99.90;;;;;;6191156;23;20088;-82
2021/03/30 02:27:29;;;;;;;7.50;2.20;;;5.80;99.90;;;;;;6188675;22;20023;-79
2021/03/30 02:29:57;;;;;;;4.25;2.20;;;5.70;99.90;;;;;;6164536;23;19997;-80
2021/03/30 02:32:24;;;;;;;7.55;2.50;;;5.60;99.90;;;;;;6193199;23;20036;-79
2021/03/30 02:34:54;;;;;;;5.93;2.78;;;7.10;99.90;;;;;;6165360;23;20016;-80
2021/03/30 02:37:21;;;;;;;5.43;2.28;;;5.60;99.90;;;;;;6164143;23;20005;-80
2021/03/30 02:39:48;;;;;;;5.78;2.10;;;5.60;99.90;;;;;;6163963;23;19997;-82
2021/03/30 02:42:15;;;;;;;7.53;2.80;;;5.50;99.90;;;;;;6190887;23;20471;-80
2021/03/30 02:44:42;;;;;;;6.90;2.30;;;5.50;99.90;;;;;;6163641;23;20306;-76
2021/03/30 02:47:09;;;;;;;8.35;2.60;;;5.50;99.90;;;;;;6161282;23;20032;-77
2021/03/30 02:49:35;;;;;;;10.93;2.40;;;5.40;99.90;;;;;;6162579;23;20096;-76
2021/03/30 02:52:02;;;;;;;6.03;2.90;;;5.40;99.90;;;;;;6162162;23;20012;-77
2021/03/30 02:54:29;;;;;;;7.95;2.45;;;5.30;99.90;;;;;;6161878;23;20005;-79
2021/03/30 02:56:59;;;;;;;11.88;3.35;;;5.20;99.90;;;;;;6188730;23;20008;-77
2021/03/30 02:59:27;;;;;;;7.70;2.92;;;5.10;99.90;;;;;;6165586;23;19997;-80
2021/03/30 03:01:53;;;;;;;11.60;3.28;;;5.00;99.90;;;;;;6163943;23;19997;-77
2021/03/30 03:04:19;;;;;;;7.20;2.90;;;5.00;99.90;;;;;;6185841;23;20428;-76
2021/03/30 03:06:45;;;;;;;7.93;2.40;;;4.90;99.90;;;;;;6186173;23;20008;-76
2021/03/30 03:09:12;;;;;;;5.60;2.72;;;4.90;99.90;;;;;;6185893;23;20353;-77
2021/03/30 03:11:43;;;;;;;16.55;3.65;;;4.90;99.90;;;;;;6159437;23;20032;-77
2021/03/30 03:14:10;;;;;;;7.20;3.42;;;4.90;99.90;;;;;;6185936;23;20005;-77
2021/03/30 03:16:38;;;;;;;10.48;3.38;;;4.80;99.90;;;;;;6186170;23;20001;-78
2021/03/30 03:19:10;;;;;;;5.97;3.05;;;4.80;99.90;;;;;;6186080;23;20139;-76
2021/03/30 03:21:37;;;;;;;8.50;3.08;;;4.80;99.90;;;;;;6159584;23;20020;-77
2021/03/30 03:24:10;;;;;;;6.88;3.00;;;4.80;99.90;;;;;;6186370;23;20027;-77
2021/03/30 03:26:40;;;;;;;12.85;3.42;;;4.80;99.90;;;;;;6185890;23;20337;-77
2021/03/30 03:29:17;;;;;;;10.68;3.10;;;4.70;99.90;;;;;;6159603;23;20059;-77
2021/03/30 03:31:44;;;;;;;13.05;4.20;;;4.70;99.90;;;;;;6186131;23;20039;-78
2021/03/30 03:34:16;;;;;;;10.23;3.33;;;4.70;99.90;;;;;;6185621;23;20008;-77
2021/03/30 03:36:44;;;;;;;9.07;3.58;;;4.70;99.90;;;;;;6159422;23;20029;-77
2021/03/30 03:39:11;;;;;;;8.65;3.85;;;4.70;99.90;;;;;;6159391;23;20024;-77
2021/03/30 03:41:41;;;;;;;9.77;4.03;;;4.70;99.90;;;;;;6158361;22;20421;-78
2021/03/30 03:44:07;;;;;;;14.38;4.18;;;4.70;99.90;;;;;;6162255;23;20021;-78
2021/03/30 03:46:33;;;;;;;12.55;4.03;;;4.70;99.90;;;;;;6136907;22;20036;-80
2021/03/30 03:48:59;;;;;;;11.93;4.32;;;4.60;99.90;;;;;;6164059;23;20005;-79
2021/03/30 03:51:28;;;;;;;12.27;4.35;;;4.70;99.90;;;;;;6165969;23;19997;-79
2021/03/30 03:53:54;;;;;;;;;;;4.60;99.90;;;;;;6192133;23;20009;-78
2021/03/30 03:56:25;;;;;;;11.15;4.35;;;4.70;99.90;;;;;;6165338;23;20301;-79
2021/03/30 03:58:55;;;;;;;10.70;4.28;;;4.60;99.90;;;;;;6189382;23;20004;-78
2021/03/30 04:01:25;;;;;;;12.35;4.25;;;4.60;99.90;;;;;;6192569;23;19997;-81
2021/03/30 04:04:05;;;;;;;8.60;3.83;;;4.60;99.90;;;;;;6166239;23;20032;-80
2021/03/30 04:06:38;;;;;;;12.98;4.43;;;4.50;99.90;;;;;;6166055;23;20005;-78
2021/03/30 04:09:09;;;;;;;10.60;3.90;;;4.50;99.90;;;;;;6191084;23;20032;-79
2021/03/30 04:11:35;;;;;;;7.90;3.92;;;4.50;99.90;;;;;;6164523;23;20428;-79
2021/03/30 04:14:01;;;;;;;9.55;4.72;;;4.50;99.90;;;;;;6161789;22;21363;-80
2021/03/30 04:16:26;;;;;;;8.45;3.88;;;3.90;99.90;;;;;;6165737;23;20009;-79
2021/03/30 04:18:52;;;;;;;13.32;4.13;;;4.50;99.90;;;;;;6190857;23;20008;-79
2021/03/30 04:21:23;;;;;;;10.20;4.28;;;4.30;99.90;;;;;;6190222;23;20024;-79
2021/03/30 04:23:50;;;;;;;8.63;3.78;;;4.40;99.90;;;;;;6163671;23;20032;-78
2021/03/30 04:26:16;;;;;;;12.90;4.85;;;4.40;99.90;;;;;;6192910;23;20381;-79
2021/03/30 04:28:41;;;;;;;17.52;5.05;;;4.40;99.90;;;;;;6191412;23;20036;-77
2021/03/30 04:31:07;;;;;;;16.20;5.20;;;4.40;99.90;;;;;;6189550;23;20035;-77
2021/03/30 04:33:33;;;;;;;12.95;5.68;;;4.50;99.90;;;;;;6191888;23;20001;-79
2021/03/30 04:35:58;;;;;;;16.48;5.97;;;4.50;99.90;;;;;;6163805;23;20048;-77
2021/03/30 04:38:24;;;;;;;16.23;5.80;;;4.10;99.90;;;;;;6190294;23;20328;-78
2021/03/30 04:40:53;;;;;;;15.55;6.05;;;4.10;99.90;;;;;;6189635;23;20004;-78
2021/03/30 04:43:22;;;;;;;13.77;6.20;;;4.50;99.90;;;;;;6162701;23;20084;-78
2021/03/30 04:45:48;;;;;;;16.02;6.45;;;4.50;99.90;;;;;;6191785;23;20001;-78
2021/03/30 04:48:14;;;;;;;15.07;6.30;;;4.60;99.90;;;;;;6190421;23;20012;-77
2021/03/30 04:50:40;;;;;;;18.77;6.10;;;4.70;99.90;;;;;;6189379;23;20017;-78
2021/03/30 04:53:05;;;;;;;17.20;5.85;;;4.70;99.90;;;;;;6169368;23;20420;-79
2021/03/30 04:55:34;;;;;;;12.93;5.10;;;4.60;99.90;;;;;;6169079;23;20024;-80
2021/03/30 04:57:59;;;;;;;18.83;5.80;;;4.60;99.90;;;;;;6168661;23;20001;-80
2021/03/30 05:00:25;;;;;;;15.02;6.38;;;4.50;99.90;;;;;;6171032;23;19997;-79
2021/03/30 05:02:50;;;;;;;15.80;5.85;;;4.50;99.90;;;;;;6199060;23;20078;-80
2021/03/30 05:05:17;;;;;;;13.20;5.32;;;4.40;99.90;;;;;;6195262;23;19997;-80
2021/03/30 05:07:42;;;;;;;15.93;5.68;;;4.40;99.90;;;;;;6169170;23;20005;-81
2021/03/30 05:10:09;;;;;;;13.88;6.00;;;3.90;99.90;;;;;;6195445;23;20024;-80
2021/03/30 05:12:34;;;;;;;15.80;5.95;;;4.30;99.90;;;;;;6164850;23;19997;-79
2021/03/30 05:15:00;;;;;;;14.20;5.57;;;4.20;99.90;;;;;;6165411;23;20429;-80
2021/03/30 05:17:26;;;;;;;12.07;5.18;;;4.20;99.90;;;;;;6167122;23;20029;-80
2021/03/30 05:19:51;;;;;;;15.15;5.65;;;4.20;99.90;;;;;;6192143;23;20407;-80
2021/03/30 05:22:17;;;;;;;14.50;4.63;;;4.10;99.90;;;;;;6166189;23;20005;-80
2021/03/30 05:24:43;;;;;;;14.25;5.25;;;4.10;99.90;;;;;;6191924;23;20001;-77
2021/03/30 05:27:08;;;;;;;25.05;5.93;;;4.00;99.90;;;;;;6187528;23;20005;-76
2021/03/30 05:29:43;;;;;;;18.38;5.72;;;4.00;99.90;;;;;;6160962;23;20004;-75
2021/03/30 05:32:13;;;;;;;18.52;4.63;;;3.90;99.90;;;;;;6159925;23;20007;-75
2021/03/30 05:34:39;;;;;;;14.50;6.22;;;3.80;99.90;;;;;;6161060;23;20012;-74
2021/03/30 05:37:05;;;;;;;14.27;6.18;;;3.80;99.90;;;;;;6187365;23;20001;-76
2021/03/30 05:39:31;;;;;;;16.75;6.05;;;3.80;99.90;;;;;;6187008;23;20510;-72
2021/03/30 05:41:57;;;;;;;14.38;6.43;;;3.80;99.90;;;;;;6187347;23;19997;-77
2021/03/30 05:44:24;;;;;;;20.58;6.13;;;3.80;99.90;;;;;;6187889;23;20001;-77
2021/03/30 05:47:09;;;;;;;15.93;7.75;;;3.90;99.90;;;;;;6160352;23;20001;-76
2021/03/30 05:49:37;;;;;;;20.27;7.13;;;3.90;99.90;;;;;;6160920;23;20025;-77
2021/03/30 05:52:06;;;;;;;15.93;6.25;;;3.90;99.90;;;;;;6162253;23;20036;-74
2021/03/30 05:54:34;;;;;;;;;;;4.00;99.90;;;;;;6161009;23;20431;-73
2021/03/30 05:57:01;;;;;;;20.45;6.18;;;4.10;99.90;;;;;;6187646;23;19911;-76
2021/03/30 05:59:29;;;;;;;12.73;6.00;;;4.20;99.90;;;;;;6161023;23;20086;-76
2021/03/30 06:01:55;;;;;;;15.90;5.95;;;4.20;99.90;;;;;;6160969;23;20428;-76
2021/03/30 06:04:22;;;;;;;14.77;6.70;;;4.40;99.90;;;;;;6187483;23;20001;-74
2021/03/30 06:06:48;;;;;;;16.75;7.25;;;4.40;99.90;;;;;;6187796;23;20392;-77
2021/03/30 06:09:14;;;;;;;15.68;6.35;;;4.50;99.90;;;;;;6161525;23;20017;-76
2021/03/30 06:11:40;;;;;;;15.75;6.63;;;4.60;99.90;;;;;;6188228;23;20443;-74
2021/03/30 06:17:08;;;;;;;19.50;8.15;;;4.70;99.90;;;;;;6188102;23;20460;-74
2021/03/30 06:19:54;;;;;;;12.27;6.25;;;4.70;99.90;;;;;;6160174;23;20359;-76
2021/03/30 06:22:23;;;;;;;18.85;7.20;;;5.00;99.90;;;;;;6161746;23;20058;-76
2021/03/30 06:24:51;;;;;;;24.05;7.68;;;5.10;99.90;;;;;;6158811;22;20032;-78
2021/03/30 06:27:30;;;;;;;23.42;7.93;;;5.10;99.90;;;;;;6161280;23;20425;-77
2021/03/30 06:29:59;;;;;;;19.48;6.88;;;5.30;99.90;;;;;;6189789;23;20049;-76
2021/03/30 06:32:26;;;;;;;21.08;6.85;;;5.50;99.90;;;;;;6187190;23;20055;-76
2021/03/30 06:34:58;;;;;;;19.05;8.23;;;5.60;99.90;;;;;;6159672;23;20017;-73
2021/03/30 06:37:31;;;;;;;19.98;8.82;;;5.60;99.90;;;;;;6162130;23;20001;-77
2021/03/30 06:40:19;;;;;;;19.95;7.47;;;6.00;99.90;;;;;;6161306;23;20013;-75
2021/03/30 06:45:20;;;;;;;22.98;9.38;;;6.40;99.90;;;;;;6187744;23;20039;-75
2021/03/30 06:48:02;;;;;;;23.08;10.27;;;6.50;99.90;;;;;;6159257;23;20024;-77
2021/03/30 06:50:36;;;;;;;24.52;9.52;;;4.90;99.90;;;;;;6161045;23;20004;-77
2021/03/30 06:53:18;;;;;;;29.00;11.07;;;7.00;99.90;;;;;;6187856;23;20380;-80
2021/03/30 06:55:51;;;;;;;25.83;10.93;;;7.10;99.90;;;;;;6161526;23;20024;-78
2021/03/30 06:58:22;;;;;;;28.83;10.07;;;7.30;99.90;;;;;;6187731;23;20306;-76
2021/03/30 07:00:49;;;;;;;30.65;11.60;;;7.50;99.90;;;;;;6137092;23;20005;-77
2021/03/30 07:03:24;;;;;;;26.75;10.30;;;7.80;99.90;;;;;;6162147;23;20005;-77
2021/03/30 07:05:54;;;;;;;24.40;11.25;;;8.10;99.90;;;;;;6161358;23;20037;-76
2021/03/30 07:08:21;;;;;;;30.60;11.15;;;8.60;99.90;;;;;;6187328;22;20024;-77
2021/03/30 07:13:20;;;;;;;36.97;11.38;;;8.80;99.90;;;;;;6159387;23;20025;-74
2021/03/30 07:18:40;;;;;;;27.48;11.38;;;9.20;99.90;;;;;;6157837;23;20025;-75
2021/03/30 07:21:21;;;;;;;29.20;12.13;;;9.30;99.90;;;;;;6157603;23;20041;-76
2021/03/30 07:23:57;;;;;;;33.20;11.02;;;9.50;99.90;;;;;;6187149;22;20016;-75
2021/03/30 07:26:46;;;;;;;27.83;10.73;;;9.60;99.90;;;;;;6184884;22;20027;-76
2021/03/30 07:29:14;;;;;;;;;;;9.70;99.90;;;;;;6187204;23;20012;-76
2021/03/30 07:32:04;;;;;;;27.83;11.48;;;10.30;99.90;;;;;;6186690;23;19907;-77
2021/03/30 07:34:49;;;;;;;23.20;10.30;;;9.70;99.90;;;;;;6187227;23;20027;-75
2021/03/30 07:37:24;;;;;;;31.15;11.77;;;9.70;99.90;;;;;;6187504;23;20424;-77
2021/03/30 07:39:54;;;;;;;26.40;10.82;;;9.80;99.90;;;;;;6186986;23;20005;-76
2021/03/30 07:42:23;;;;;;;29.30;11.13;;;9.80;99.90;;;;;;6188101;23;20459;-76
2021/03/30 07:44:50;;;;;;;30.60;10.75;;;9.90;99.90;;;;;;6186955;23;20008;-77
2021/03/30 07:47:27;;;;;;;30.23;11.75;;;10.10;99.90;;;;;;6190716;23;20325;-79
2021/03/30 07:49:55;;;;;;;36.95;11.95;;;10.20;99.90;;;;;;6163880;23;20001;-76
2021/03/30 07:52:27;;;;;;;33.47;12.30;;;10.30;99.90;;;;;;6160570;23;20052;-73
2021/03/30 07:55:17;;;;;;;35.60;12.52;;;10.50;99.90;;;;;;6186843;23;20001;-73
2021/03/30 07:57:59;;;;;;;31.35;11.98;;;10.70;99.90;;;;;;6159590;23;20019;-73
2021/03/30 08:00:30;;;;;;;29.25;11.10;;;10.80;99.90;;;;;;6186041;23;20001;-73
2021/03/30 08:03:02;;;;;;;29.27;11.68;;;10.90;99.90;;;;;;6159543;23;20335;-73
2021/03/30 08:05:28;;;;;;;30.83;10.35;;;11.10;99.90;;;;;;6185645;23;20491;-73
2021/03/30 08:07:56;;;;;;;29.00;12.57;;;11.20;99.90;;;;;;6185957;23;20001;-73
2021/03/30 08:10:23;;;;;;;29.80;11.48;;;11.30;99.90;;;;;;6185878;23;20423;-73
2021/03/30 08:12:48;;;;;;;30.58;12.27;;;11.50;99.90;;;;;;6185959;23;20005;-73
2021/03/30 08:15:40;;;;;;;33.55;11.90;;;11.60;99.90;;;;;;6159039;23;20008;-73
2021/03/30 08:18:09;;;;;;;30.33;13.32;;;11.70;99.90;;;;;;6158854;23;20001;-73
2021/03/30 08:20:54;;;;;;;30.77;12.00;;;11.90;99.30;;;;;;6185293;23;20040;-72
2021/03/30 08:23:21;;;;;;;26.27;10.98;;;12.00;99.30;;;;;;6185480;23;20009;-73
2021/03/30 08:25:49;;;;;;;26.23;11.77;;;12.20;98.40;;;;;;6158739;23;20079;-73
2021/03/30 08:28:51;;;;;;;25.42;10.73;;;12.40;97.00;;;;;;6159980;23;20411;-73
2021/03/30 08:31:19;;;;;;;26.42;11.95;;;12.50;93.70;;;;;;6187220;23;20032;-78
2021/03/30 08:33:48;;;;;;;22.83;10.00;;;12.60;93.10;;;;;;6160567;23;20005;-74
2021/03/30 08:36:33;;;;;;;28.90;10.75;;;12.80;92.20;;;;;;6186634;23;20371;-76
2021/03/30 08:39:06;;;;;;;25.75;10.98;;;12.90;91.70;;;;;;6160962;23;20066;-75
2021/03/30 08:41:47;;;;;;;31.23;10.70;;;13.00;90.70;;;;;;6186581;23;20064;-76
2021/03/30 08:44:59;;;;;;;25.85;10.93;;;13.20;90.70;;;;;;6185916;23;20017;-75
2021/03/30 08:47:40;;;;;;;28.05;11.55;;;13.30;90.60;;;;;;6106576;23;20012;-75
2021/03/30 08:50:27;;;;;;;25.98;11.23;;;13.50;90.90;;;;;;6157960;23;20001;-76
2021/03/30 08:52:54;;;;;;;25.50;11.75;;;13.70;90.40;;;;;;6133604;23;20429;-76
2021/03/30 08:55:33;;;;;;;25.33;10.65;;;13.90;87.00;;;;;;6157886;23;20032;-76
2021/03/30 08:58:00;;;;;;;26.60;10.93;;;13.90;87.00;;;;;;6157927;23;20052;-75
2021/03/30 09:00:27;;;;;;;22.45;10.07;;;14.10;87.30;;;;;;6131229;23;20002;-76
2021/03/30 09:03:01;;;;;;;23.92;10.70;;;14.20;87.00;;;;;;6157732;23;19998;-77
2021/03/30 09:05:27;;;;;;;25.30;9.77;;;14.70;85.70;;;;;;6157081;23;20005;-76
2021/03/30 09:07:53;;;;;;;22.50;9.23;;;14.50;85.20;;;;;;6131362;23;20001;-76
2021/03/30 09:10:20;;;;;;;26.35;9.90;;;14.70;82.80;;;;;;6157512;23;20047;-75
2021/03/30 09:12:46;;;;;;;21.23;9.52;;;14.80;81.70;;;;;;6157204;23;20064;-76
2021/03/30 09:15:14;;;;;;;22.55;9.38;;;14.80;81.40;;;;;;6156276;23;20005;-77
2021/03/30 09:18:00;;;;;;;24.58;10.07;;;15.00;82.30;;;;;;6157244;23;20337;-76
2021/03/30 09:20:32;;;;;;;22.52;9.73;;;15.00;78.90;;;;;;6156862;23;20053;-76
2021/03/30 09:23:02;;;;;;;22.33;9.82;;;15.10;78.10;;;;;;6156983;23;20441;-76
2021/03/30 09:25:39;;;;;;;22.00;9.75;;;15.20;79.60;;;;;;6157093;23;20001;-76
2021/03/30 09:28:12;;;;;;;23.02;8.82;;;15.50;77.20;;;;;;6156913;23;20001;-76
2021/03/30 09:30:38;;;;;;;23.30;8.80;;;15.70;73.70;;;;;;6157919;22;19997;-77
2021/03/30 09:33:04;;;;;;;22.88;8.98;;;15.10;72.00;;;;;;6162370;23;20463;-80
2021/03/30 09:35:29;;;;;;;23.38;9.43;;;15.90;72.10;;;;;;6185981;22;20009;-77
2021/03/30 09:37:58;;;;;;;21.90;9.15;;;16.10;72.70;;;;;;6162650;23;20341;-76
2021/03/30 09:40:26;;;;;;;28.35;9.98;;;16.20;71.00;;;;;;6162892;23;20388;-76
2021/03/30 09:42:52;;;;;;;20.80;8.93;;;16.20;71.40;;;;;;6188956;23;19997;-76
2021/03/30 09:45:27;;;;;;;18.90;8.25;;;16.20;70.10;;;;;;6188436;23;20044;-76
2021/03/30 09:47:54;;;;;;;19.52;8.40;;;16.30;71.00;;;;;;6161094;23;20432;-76
2021/03/30 09:50:21;;;;;;;19.08;6.82;;;16.40;69.90;;;;;;6188463;23;20005;-77
2021/03/30 09:52:48;;;;;;;21.20;7.45;;;16.60;65.20;;;;;;6161534;23;20379;-76
2021/03/30 09:55:34;;;;;;;17.95;7.43;;;16.70;67.80;;;;;;6187890;23;20285;-77
2021/03/30 09:58:02;;;;;;;21.40;7.47;;;16.90;64.60;;;;;;6187258;23;20321;-75
2021/03/30 10:00:29;;;;;;;17.67;6.95;;;17.10;61.80;;;;;;6187224;23;20064;-77
2021/03/30 10:02:55;;;;;;;16.45;6.38;;;17.20;62.70;;;;;;6187152;23;20001;-74
2021/03/30 10:05:21;;;;;;;13.15;5.93;;;17.40;60.90;;;;;;6161274;23;20005;-74
2021/03/30 10:07:47;;;;;;;14.23;5.40;;;17.50;61.90;;;;;;6187989;23;20337;-75
2021/03/30 10:10:14;;;;;;;16.77;6.45;;;17.70;59.70;;;;;;6188387;23;20080;-77
2021/03/30 10:12:54;;;;;;;14.40;5.63;;;17.80;57.30;;;;;;6161862;23;20025;-76
2021/03/30 10:15:33;;;;;;;15.43;5.93;;;17.90;57.90;;;;;;6161783;23;20084;-77
2021/03/30 10:18:00;;;;;;;14.85;5.85;;;18.10;56.60;;;;;;6187252;23;20001;-76
2021/03/30 10:20:26;;;;;;;11.93;4.85;;;18.20;56.50;;;;;;6186418;23;20004;-76
2021/03/30 10:22:52;;;;;;;12.23;5.15;;;18.30;54.80;;;;;;6186772;23;19997;-77
2021/03/30 10:25:22;;;;;;;15.25;5.07;;;18.50;54.30;;;;;;6186792;23;20332;-76
2021/03/30 10:28:01;;;;;;;10.63;4.50;;;18.60;54.10;;;;;;6159537;23;20005;-76
2021/03/30 10:30:39;;;;;;;11.38;3.85;;;18.70;54.50;;;;;;6186228;23;20495;-76
2021/03/30 10:33:06;;;;;;;9.10;4.72;;;18.90;52.80;;;;;;6186410;23;20011;-76
2021/03/30 10:35:32;;;;;;;10.80;4.30;;;19.00;52.50;;;;;;6160213;23;20338;-76
2021/03/30 10:37:58;;;;;;;13.93;3.95;;;19.10;50.00;;;;;;6186176;23;19997;-76
2021/03/30 10:40:33;;;;;;;13.38;3.65;;;19.10;50.70;;;;;;6159584;23;19997;-76
2021/03/30 10:43:20;;;;;;;10.02;3.97;;;19.10;50.50;;;;;;6185571;23;20104;-76
2021/03/30 10:45:45;;;;;;;12.55;3.60;;;19.10;50.40;;;;;;6187124;23;20436;-76
2021/03/30 10:48:11;;;;;;;11.43;4.50;;;19.20;50.40;;;;;;6160234;23;20001;-76
2021/03/30 10:50:37;;;;;;;8.90;3.72;;;19.20;52.40;;;;;;6186438;23;20005;-79
2021/03/30 10:53:03;;;;;;;10.68;3.60;;;19.40;51.00;;;;;;6187156;23;20037;-75
2021/03/30 10:55:29;;;;;;;9.77;3.70;;;19.50;47.70;;;;;;6187509;23;20076;-77
2021/03/30 10:57:55;;;;;;;8.57;3.20;;;19.40;49.80;;;;;;6189861;23;20433;-81
2021/03/30 11:00:20;;;;;;;10.90;3.88;;;19.70;50.30;;;;;;6187420;23;19997;-74
2021/03/30 11:02:46;;;;;;;14.93;4.50;;;19.90;46.70;;;;;;6159426;23;20079;-75
2021/03/30 11:05:13;;;;;;;12.73;4.00;;;19.20;49.40;;;;;;6186069;22;20044;-80
2021/03/30 11:07:38;;;;;;;10.60;4.00;;;20.10;50.30;;;;;;6160655;23;20001;-76
2021/03/30 11:10:10;;;;;;;13.20;4.80;;;20.30;49.50;;;;;;6187639;23;20005;-80
2021/03/30 11:12:35;;;;;;;14.55;4.38;;;20.40;48.40;;;;;;6160278;23;20004;-77
2021/03/30 11:15:03;;;;;;;8.73;3.60;;;20.60;48.00;;;;;;6158792;23;20013;-77
2021/03/30 11:17:29;;;;;;;11.75;3.67;;;20.60;47.90;;;;;;6185599;23;20005;-76
2021/03/30 11:19:55;;;;;;;9.15;3.42;;;21.50;48.10;;;;;;6159859;23;20444;-77
2021/03/30 11:22:20;;;;;;;10.73;3.83;;;20.60;46.50;;;;;;6159258;23;20012;-77
2021/03/30 11:24:53;;;;;;;10.02;3.22;;;20.80;47.50;;;;;;6159637;23;20021;-77
2021/03/30 11:27:19;;;;;;;9.88;3.47;;;21.00;47.10;;;;;;6160248;23;20017;-77
2021/03/30 11:29:51;;;;;;;10.20;3.38;;;21.00;49.70;;;;;;6160709;23;20017;-76
2021/03/30 11:32:29;;;;;;;10.10;3.42;;;21.00;47.00;;;;;;6160958;23;20001;-77
2021/03/30 11:39:51;;;;;;;10.23;4.13;;;21.00;46.10;;;;;;6188795;23;19900;-77
2021/03/30 11:42:18;;;;;;;11.68;3.70;;;24.40;47.40;;;;;;6159631;23;20024;-75
2021/03/30 11:44:44;;;;;;;11.02;3.72;;;22.30;46.00;;;;;;6162271;23;20001;-76
2021/03/30 11:47:10;;;;;;;7.68;3.35;;;21.50;46.80;;;;;;6162561;23;20027;-76
2021/03/30 11:49:36;;;;;;;10.23;3.90;;;22.30;45.60;;;;;;6189269;23;20006;-76
2021/03/30 11:52:24;;;;;;;7.30;3.13;;;24.10;46.80;;;;;;6190904;23;20009;-76
2021/03/30 11:54:58;;;;;;;9.00;3.47;;;22.60;44.40;;;;;;6188983;23;20021;-77
2021/03/30 11:57:30;;;;;;;8.20;3.10;;;23.40;42.80;;;;;;6162237;23;20046;-77
2021/03/30 12:00:03;;;;;;;8.88;4.10;;;20.90;42.00;;;;;;6165932;23;20032;-78
2021/03/30 12:02:34;;;;;;;9.13;3.58;;;22.70;42.00;;;;;;6162433;23;20008;-77
2021/03/30 12:05:00;;;;;;;10.75;4.38;;;23.50;43.10;;;;;;6161411;23;20005;-77
2021/03/30 12:07:30;;;;;;;10.68;3.20;;;24.60;43.50;;;;;;6168088;23;20069;-81
2021/03/30 12:10:00;;;;;;;11.52;3.85;;;23.00;41.30;;;;;;6190672;23;20005;-77
2021/03/30 12:12:26;;;;;;;9.15;3.75;;;23.30;40.80;;;;;;6160602;23;20005;-77
2021/03/30 12:14:58;;;;;;;10.50;3.50;;;23.40;39.70;;;;;;6162287;23;20005;-80
2021/03/30 12:17:26;;;;;;;7.75;2.85;;;23.60;38.10;;;;;;6160948;23;20013;-76
2021/03/30 12:19:55;;;;;;;;;;;23.60;35.30;;;;;;6162441;23;20321;-77
2021/03/30 12:22:23;;;;;;;;;;;24.10;36.70;;;;;;6161356;23;19900;-76
2021/03/30 12:24:50;;;;;;;13.70;5.60;;;23.90;39.70;;;;;;6163580;23;19900;-77
2021/03/30 12:27:16;;;;;;;11.48;5.07;;;24.00;40.80;;;;;;6166110;23;20483;-82
2021/03/30 12:29:42;;;;;;;14.75;6.13;;;23.60;41.20;;;;;;6190838;23;20025;-81
2021/03/30 12:32:12;;;;;;;14.88;5.10;;;23.80;39.30;;;;;;6163864;23;20431;-76
2021/03/30 12:34:39;;;;;;;13.55;4.70;;;23.70;38.60;;;;;;6161190;23;20009;-77
2021/03/30 12:37:09;;;;;;;12.90;4.38;;;24.10;38.50;;;;;;6161507;23;20438;-77
2021/03/30 12:39:39;;;;;;;13.93;5.57;;;23.60;39.30;;;;;;6170042;23;20076;-84
2021/03/30 12:42:16;;;;;;;18.80;7.05;;;24.50;38.70;;;;;;6169560;23;20005;-80
2021/03/30 12:44:47;;;;;;;14.90;6.00;;;24.90;38.20;;;;;;6171062;23;20084;-80
2021/03/30 12:47:13;;;;;;;16.65;5.43;;;24.60;39.10;;;;;;6167279;23;20400;-79
2021/03/30 12:49:44;;;;;;;14.77;6.15;;;24.80;38.40;;;;;;6188857;23;20008;-76
2021/03/30 12:52:10;;;;;;;14.63;6.05;;;25.10;38.10;;;;;;6187547;23;20413;-77
2021/03/30 12:54:35;;;;;;;16.08;5.32;;;25.30;37.10;;;;;;6187082;23;20069;-77
2021/03/30 12:57:01;;;;;;;14.20;5.43;;;25.00;35.20;;;;;;6160673;23;19997;-77
2021/03/30 12:59:27;;;;;;;18.20;6.47;;;25.30;36.60;;;;;;6161469;23;20108;-76
2021/03/30 13:01:52;;;;;;;17.48;6.13;;;25.20;36.40;;;;;;6166155;23;20443;-79
2021/03/30 13:04:25;;;;;;;16.25;5.85;;;25.10;36.20;;;;;;6166101;23;20044;-78
2021/03/30 13:07:14;;;;;;;15.57;6.47;;;22.30;37.00;;;;;;6168717;23;20032;-80
2021/03/30 13:10:12;;;;;;;15.77;6.53;;;25.40;36.10;;;;;;6170488;23;20355;-79
2021/03/30 13:12:39;;;;;;;20.88;6.38;;;25.50;36.20;;;;;;6168949;23;20005;-80
2021/03/30 13:15:22;;;;;;;15.80;6.00;;;25.60;34.40;;;;;;6172883;23;20459;-80